createdAt,value
2023-04-03T00:00:37.176Z,100727.69
2023-04-03T00:02:45.460Z,100727.22
2023-04-03T00:04:52.453Z,100724.84
2023-04-03T00:06:59.233Z,100728.19
2023-04-03T00:09:05.657Z,100728.02
2023-04-03T00:11:14.057Z,100731.61
2023-04-03T00:13:21.583Z,100726.82
2023-04-03T00:15:28.083Z,100729.01
2023-04-03T00:17:34.638Z,100731.94
2023-04-03T00:19:41.060Z,100727.7
2023-04-03T00:21:47.863Z,100731.39
2023-04-03T00:23:54.357Z,100734.63
2023-04-03T00:26:01.630Z,100727.38
2023-04-03T00:28:08.410Z,100733.95
2023-04-03T00:30:15.209Z,100729.39
2023-04-03T00:32:21.889Z,100731.13
2023-04-03T00:34:28.463Z,100731.17
2023-04-03T00:36:34.633Z,100726.44
2023-04-03T00:38:41.350Z,100729.63
2023-04-03T00:40:48.046Z,100730.46
2023-04-03T00:42:54.181Z,100734.5
2023-04-03T00:45:01.882Z,100733.36
2023-04-03T00:47:08.563Z,100741.61
2023-04-03T00:49:15.207Z,100736.59
2023-04-03T00:51:22.907Z,100736.77
2023-04-03T00:53:29.564Z,100746.28
2023-04-03T00:55:36.323Z,100745.41
2023-04-03T00:57:43.080Z,100742.78
2023-04-03T00:59:49.350Z,100748.88
2023-04-03T01:01:55.734Z,100755.66
2023-04-03T01:04:02.207Z,100753.43
2023-04-03T01:06:08.588Z,100752.63
2023-04-03T01:08:15.062Z,100755.28
2023-04-03T01:10:22.244Z,100755.64
2023-04-03T01:12:28.612Z,100762.52
2023-04-03T01:14:36.681Z,100764.95
2023-04-03T01:16:43.167Z,100764.87
2023-04-03T01:18:51.064Z,100764.63
2023-04-03T01:20:57.798Z,100773.34
2023-04-03T01:23:04.398Z,100775.39
2023-04-03T01:25:10.846Z,100780.52
2023-04-03T01:27:17.227Z,100776.78
2023-04-03T01:29:23.679Z,100771.85
2023-04-03T01:31:30.511Z,100783
2023-04-03T01:33:37.913Z,100777.06
2023-04-03T01:35:44.169Z,100787.68
2023-04-03T01:37:51.212Z,100793.93
2023-04-03T01:39:57.799Z,100790.73
2023-04-03T01:42:04.213Z,100794.72
2023-04-03T01:44:11.412Z,100788.13
2023-04-03T01:46:17.724Z,100790.16
2023-04-03T01:48:25.177Z,100793.22
2023-04-03T01:50:32.106Z,100793.48
2023-04-03T01:52:38.464Z,100795.13
2023-04-03T01:54:45.602Z,100798.06
2023-04-03T01:56:52.553Z,100801.03
2023-04-03T01:58:58.735Z,100803.14
2023-04-03T02:01:05.577Z,100803.38
2023-04-03T02:03:13.030Z,100810.91
2023-04-03T02:05:21.911Z,100812.41
2023-04-03T02:07:28.273Z,100812.06
2023-04-03T02:09:34.810Z,100808.92
2023-04-03T02:11:41.115Z,100811.36
2023-04-03T02:13:50.439Z,100811.23
2023-04-03T02:15:57.445Z,100811.02
2023-04-03T02:18:09.282Z,100814.42
2023-04-03T02:20:15.807Z,100813
2023-04-03T02:22:22.172Z,100816.53
2023-04-03T02:24:29.156Z,100819.77
2023-04-03T02:26:35.498Z,100816.97
2023-04-03T02:28:42.257Z,100816.98
2023-04-03T02:30:49.825Z,100824.05
2023-04-03T02:32:56.160Z,100827.28
2023-04-03T02:35:02.571Z,100830.06
2023-04-03T02:37:08.921Z,100828.34
2023-04-03T02:39:15.688Z,100827.53
2023-04-03T02:41:22.540Z,100826.46
2023-04-03T02:43:29.225Z,100830.36
2023-04-03T02:45:36.508Z,100836.22
2023-04-03T02:47:43.373Z,100837.48
2023-04-03T02:49:50.259Z,100842.2
2023-04-03T02:51:57.394Z,100836.23
2023-04-03T02:54:04.359Z,100839.67
2023-04-03T02:56:11.218Z,100846.11
2023-04-03T02:58:18.351Z,100841
2023-04-03T03:00:25.000Z,100841.88
2023-04-03T03:02:32.214Z,100843.83
2023-04-03T03:04:39.038Z,100843.27
2023-04-03T03:06:46.626Z,100846.91
2023-04-03T03:08:52.997Z,100846.01
2023-04-03T03:10:59.783Z,100850.67
2023-04-03T03:13:06.478Z,100844.17
2023-04-03T03:15:13.336Z,100857.38
2023-04-03T03:17:21.463Z,100857.39
2023-04-03T03:19:28.693Z,100855.69
2023-04-03T03:21:36.818Z,100858.83
2023-04-03T03:23:44.341Z,100858.48
2023-04-03T03:25:50.830Z,100858.75
2023-04-03T03:27:57.807Z,100861.08
2023-04-03T03:30:04.102Z,100859.45
2023-04-03T03:32:10.235Z,100855.63
2023-04-03T03:34:16.443Z,100859.95
2023-04-03T03:36:22.956Z,100858.05
2023-04-03T03:38:29.747Z,100857.19
2023-04-03T03:40:36.345Z,100860.33
2023-04-03T03:42:44.155Z,100859.78
2023-04-03T03:44:50.839Z,100858.81
2023-04-03T03:46:57.310Z,100865.41
2023-04-03T03:49:04.114Z,100865.86
2023-04-03T03:51:11.649Z,100863.52
2023-04-03T03:53:17.844Z,100862.14
2023-04-03T03:55:24.521Z,100862.83
2023-04-03T03:57:31.796Z,100869.95
2023-04-03T03:59:39.778Z,100866.69
2023-04-03T04:01:46.559Z,100871.58
2023-04-03T04:03:54.173Z,100877.06
2023-04-03T04:06:01.423Z,100873.47
2023-04-03T04:08:07.688Z,100877.5
2023-04-03T04:10:14.074Z,100875.67
2023-04-03T04:12:21.379Z,100874.18
2023-04-03T04:14:28.318Z,100874.68
2023-04-03T04:16:34.602Z,100878.72
2023-04-03T04:18:42.459Z,100877.67
2023-04-03T04:20:49.187Z,100881.08
2023-04-03T04:22:56.103Z,100882.44
2023-04-03T04:25:02.592Z,100882.23
2023-04-03T04:27:10.194Z,100887.23
2023-04-03T04:29:17.275Z,100882.91
2023-04-03T04:31:25.559Z,100886.05
2023-04-03T04:33:32.480Z,100890.52
2023-04-03T04:35:40.528Z,100887.58
2023-04-03T04:37:47.269Z,100893.05
2023-04-03T04:39:54.206Z,100890.11
2023-04-03T04:42:01.120Z,100898.58
2023-04-03T04:44:07.765Z,100890.41
2023-04-03T04:46:16.035Z,100893
2023-04-03T04:48:22.895Z,100902.42
2023-04-03T04:50:29.964Z,100903.58
2023-04-03T04:52:37.394Z,100902.08
2023-04-03T04:54:44.248Z,100904.97
2023-04-03T04:56:52.261Z,100905.44
2023-04-03T04:58:59.226Z,100912.84
2023-04-03T05:01:05.645Z,100909.11
2023-04-03T05:03:13.140Z,100918.08
2023-04-03T05:05:20.060Z,100908.27
2023-04-03T05:07:27.568Z,100917.41
2023-04-03T05:09:35.421Z,100920.41
2023-04-03T05:11:42.822Z,100917.34
2023-04-03T05:13:50.520Z,100920.03
2023-04-03T05:15:58.596Z,100923.35
2023-04-03T05:18:06.542Z,100929.43
2023-04-03T05:20:14.709Z,100927.88
2023-04-03T05:22:22.383Z,100935.72
2023-04-03T05:24:29.660Z,100938.88
2023-04-03T05:26:37.807Z,100939.31
2023-04-03T05:28:44.864Z,100944.67
2023-04-03T05:30:52.853Z,100948.16
2023-04-03T05:33:00.511Z,100945.52
2023-04-03T05:35:08.067Z,100941.35
2023-04-03T05:37:16.318Z,100948.47
2023-04-03T05:39:24.702Z,100941.3
2023-04-03T05:41:32.571Z,100946.3
2023-04-03T05:43:40.653Z,100944.88
2023-04-03T05:45:48.999Z,100947.48
2023-04-03T05:47:56.410Z,100950.78
2023-04-03T05:50:04.430Z,100947.5
2023-04-03T05:52:12.711Z,100955.98
2023-04-03T05:54:20.433Z,100958.63
2023-04-03T05:56:28.922Z,100954.1
2023-04-03T05:58:36.244Z,100960.95
2023-04-03T06:00:43.199Z,100954.82
2023-04-03T06:02:50.822Z,100956.88
2023-04-03T06:04:58.377Z,100958.42
2023-04-03T06:07:06.597Z,100966.23
2023-04-03T06:09:14.256Z,100966.58
2023-04-03T06:11:21.119Z,100964.67
2023-04-03T06:13:28.084Z,100972.2
2023-04-03T06:15:35.373Z,100964.83
2023-04-03T06:17:42.696Z,100969.79
2023-04-03T06:19:50.343Z,100965.19
2023-04-03T06:21:58.148Z,100966.98
2023-04-03T06:24:05.917Z,100967.78
2023-04-03T06:26:13.077Z,100968.42
2023-04-03T06:28:20.207Z,100976.23
2023-04-03T06:30:26.739Z,100973.44
2023-04-03T06:32:33.684Z,100977.57
2023-04-03T06:34:40.434Z,100981.23
2023-04-03T06:36:47.459Z,100975.88
2023-04-03T06:38:54.617Z,100978.92
2023-04-03T06:41:01.668Z,100978.45
2023-04-03T06:43:08.785Z,100982.59
2023-04-03T06:45:15.666Z,100982.58
2023-04-03T06:47:22.476Z,100989.16
2023-04-03T06:49:30.054Z,100992.3
2023-04-03T06:51:36.635Z,100990.25
2023-04-03T06:53:43.836Z,100994.41
2023-04-03T06:55:50.730Z,100998.42
2023-04-03T06:57:57.607Z,100998.13
2023-04-03T07:00:04.416Z,101000.27
2023-04-03T07:02:11.085Z,101005.51
2023-04-03T07:04:18.015Z,101001.3
2023-04-03T07:06:25.208Z,101008.44
2023-04-03T07:08:32.006Z,101006.63
2023-04-03T07:10:39.586Z,101012.19
2023-04-03T07:12:46.538Z,101012.66
2023-04-03T07:14:53.759Z,101015.25
2023-04-03T07:17:00.644Z,101017.78
2023-04-03T07:19:07.387Z,101010.09
2023-04-03T07:21:16.965Z,101017.01
2023-04-03T07:23:23.448Z,101016.91
2023-04-03T07:25:29.978Z,101017.97
2023-04-03T07:27:36.883Z,101026.33
2023-04-03T07:29:43.961Z,101023.77
2023-04-03T07:31:50.187Z,101024.42
2023-04-03T07:33:56.805Z,101031.94
2023-04-03T07:36:03.168Z,101019.92
2023-04-03T07:38:10.441Z,101025.14
2023-04-03T07:40:19.016Z,101030.77
2023-04-03T07:42:26.748Z,101028.86
2023-04-03T07:44:34.593Z,101036.34
2023-04-03T07:46:41.213Z,101034.48
2023-04-03T07:48:48.099Z,101037.27
2023-04-03T07:50:55.286Z,101035.7
2023-04-03T07:53:01.721Z,101037.78
2023-04-03T07:55:09.218Z,101033.92
2023-04-03T07:57:16.622Z,101029.2
2023-04-03T07:59:22.955Z,101030.52
2023-04-03T08:01:28.948Z,101036.31
2023-04-03T08:03:36.451Z,101027.86
2023-04-03T08:05:44.770Z,101022.73
2023-04-03T08:07:51.907Z,101031.73
2023-04-03T08:09:58.516Z,101028.74
2023-04-03T08:12:04.999Z,101034.36
2023-04-03T08:14:11.368Z,101036.63
2023-04-03T08:16:18.260Z,101042.34
2023-04-03T08:18:25.514Z,101041.36
2023-04-03T08:20:32.774Z,101038.09
2023-04-03T08:22:42.798Z,101030.91
2023-04-03T08:25:00.671Z,101032.95
2023-04-03T08:27:07.929Z,101041.66
2023-04-03T08:29:15.467Z,101042.19
2023-04-03T08:31:24.525Z,101047.7
2023-04-03T08:33:32.219Z,101048.89
2023-04-03T08:35:40.644Z,101051.59
2023-04-03T08:37:49.361Z,101039.2
2023-04-03T08:39:57.186Z,101045.88
2023-04-03T08:42:04.667Z,101043.59
2023-04-03T08:44:11.526Z,101056.53
2023-04-03T08:46:18.177Z,101044.36
2023-04-03T08:48:25.884Z,101047.06
2023-04-03T08:50:33.471Z,101057.31
2023-04-03T08:52:41.606Z,101044.77
2023-04-03T08:54:47.969Z,101052.97
2023-04-03T08:56:54.156Z,101046.12
2023-04-03T08:59:00.918Z,101050.54
2023-04-03T09:01:08.697Z,101049.16
2023-04-03T09:03:16.569Z,101053.05
2023-04-03T09:05:25.695Z,101053.23
2023-04-03T09:07:32.335Z,101048.34
2023-04-03T09:09:39.534Z,101062.15
2023-04-03T09:11:46.864Z,101063.14
2023-04-03T09:13:53.218Z,101045.77
2023-04-03T09:16:00.158Z,101043.33
2023-04-03T09:18:06.449Z,101052.69
2023-04-03T09:20:13.590Z,101047.75
2023-04-03T09:22:24.252Z,101044.14
2023-04-03T09:24:30.794Z,101049.47
2023-04-03T09:26:37.583Z,101056.42
2023-04-03T09:28:52.627Z,101057.8
2023-04-03T09:31:00.332Z,101048.45
2023-04-03T09:33:06.644Z,101053.03
2023-04-03T09:35:29.770Z,101044.8
2023-04-03T09:37:52.326Z,101045.13
2023-04-03T09:39:59.239Z,101044.34
2023-04-03T09:42:05.593Z,101048.79
2023-04-03T09:44:12.306Z,101044.3
2023-04-03T09:46:21.222Z,101059.88
2023-04-03T09:48:28.416Z,101058.14
2023-04-03T09:50:36.208Z,101060.64
2023-04-03T09:52:43.700Z,101068.34
2023-04-03T09:54:50.218Z,101066.5
2023-04-03T09:56:57.295Z,101054.45
2023-04-03T09:59:05.354Z,101063.49
2023-04-03T10:01:12.056Z,101064.01
2023-04-03T10:03:19.365Z,101076.16
2023-04-03T10:05:26.438Z,101069.76
2023-04-03T10:07:33.094Z,101056.61
2023-04-03T10:09:40.301Z,101069.36
2023-04-03T10:11:47.615Z,101066.93
2023-04-03T10:13:53.822Z,101067.5
2023-04-03T10:16:00.072Z,101056.83
2023-04-03T10:18:24.520Z,101056.5
2023-04-03T10:20:31.227Z,101053.52
2023-04-03T10:22:37.198Z,101047.09
2023-04-03T10:24:44.034Z,101051.84
2023-04-03T10:26:50.949Z,101058.08
2023-04-03T10:28:57.568Z,101072.95
2023-04-03T10:31:04.271Z,101064.89
2023-04-03T10:33:11.711Z,101063.8
2023-04-03T10:35:18.596Z,101058.56
2023-04-03T10:37:25.684Z,101041.52
2023-04-03T10:39:33.399Z,101061.16
2023-04-03T10:41:40.192Z,101056.29
2023-04-03T10:43:46.911Z,101053.77
2023-04-03T10:45:54.584Z,101065.73
2023-04-03T10:48:01.649Z,101057.84
2023-04-03T10:50:08.364Z,101063.52
2023-04-03T10:52:16.712Z,101062.02
2023-04-03T10:54:23.369Z,101046.04
2023-04-03T10:56:30.157Z,101033.69
2023-04-03T10:58:37.131Z,101035.3
2023-04-03T11:00:44.410Z,101039.69
2023-04-03T11:02:51.035Z,101040.8
2023-04-03T11:04:57.342Z,101043.39
2023-04-03T11:07:03.716Z,101058.38
2023-04-03T11:09:10.050Z,101049.63
2023-04-03T11:11:16.826Z,101038.23
2023-04-03T11:13:22.978Z,101037.78
2023-04-03T11:15:30.232Z,101041.55
2023-04-03T11:17:39.332Z,101032.06
2023-04-03T11:19:46.955Z,101037.97
2023-04-03T11:21:53.447Z,101049.63
2023-04-03T11:23:59.785Z,101051.3
2023-04-03T11:26:06.398Z,101045.61
2023-04-03T11:28:12.674Z,101050.8
2023-04-03T11:30:19.304Z,101037.58
2023-04-03T11:32:26.616Z,101034.16
2023-04-03T11:34:33.403Z,101029.61
2023-04-03T11:36:40.343Z,101037.19
2023-04-03T11:38:47.605Z,101030.14
2023-04-03T11:40:55.719Z,101037.03
2023-04-03T11:43:05.243Z,101032.73
2023-04-03T11:45:13.183Z,101046.97
2023-04-03T11:47:22.408Z,101036.38
2023-04-03T11:49:29.201Z,101032.77
2023-04-03T11:51:37.929Z,101035.48
2023-04-03T11:53:45.807Z,101035.64
2023-04-03T11:55:52.844Z,101041.17
2023-04-03T11:58:00.583Z,101037.2
2023-04-03T12:00:08.911Z,101041.15
2023-04-03T12:02:15.742Z,101037.58
2023-04-03T12:04:23.497Z,101032.89
2023-04-03T12:06:31.650Z,101042.39
2023-04-03T12:08:39.131Z,101033.26
2023-04-03T12:10:47.034Z,101033.72
2023-04-03T12:12:54.023Z,101036.02
2023-04-03T12:15:00.752Z,101036.34
2023-04-03T12:17:08.497Z,101036.2
2023-04-03T12:19:16.034Z,101032.92
2023-04-03T12:21:27.657Z,101038.34
2023-04-03T12:23:35.283Z,101043.91
2023-04-03T12:25:43.400Z,101032.64
2023-04-03T12:27:51.282Z,101019.81
2023-04-03T12:29:58.799Z,101026.72
2023-04-03T12:32:06.158Z,101035.8
2023-04-03T12:34:14.129Z,101037.47
2023-04-03T12:36:22.933Z,101040.08
2023-04-03T12:38:30.558Z,101023.94
2023-04-03T12:40:37.847Z,101026.61
2023-04-03T12:42:49.021Z,101033.55
2023-04-03T12:44:56.444Z,101026.88
2023-04-03T12:47:04.013Z,101031.88
2023-04-03T12:49:11.618Z,101029.92
2023-04-03T12:51:18.741Z,101023.12
2023-04-03T12:53:26.059Z,101028
2023-04-03T12:55:33.584Z,101025.45
2023-04-03T12:57:41.105Z,101022.37
2023-04-03T12:59:49.571Z,101022.58
2023-04-03T13:01:57.581Z,101028.15
2023-04-03T13:04:05.387Z,101017.98
2023-04-03T13:06:12.724Z,101020.75
2023-04-03T13:08:20.676Z,101013.57
2023-04-03T13:10:28.229Z,101022.11
2023-04-03T13:12:35.918Z,101017.04
2023-04-03T13:14:42.854Z,101025.83
2023-04-03T13:16:49.430Z,101020.45
2023-04-03T13:18:56.828Z,101020.62
2023-04-03T13:21:03.645Z,101018.91
2023-04-03T13:23:10.830Z,101018.8
2023-04-03T13:25:19.118Z,101018.94
2023-04-03T13:27:25.675Z,101007.52
2023-04-03T13:29:33.840Z,101011.73
2023-04-03T13:31:42.586Z,101010.02
2023-04-03T13:33:51.010Z,101011.49
2023-04-03T13:35:59.735Z,101019.59
2023-04-03T13:38:09.169Z,101010.88
2023-04-03T13:40:17.486Z,101011.84
2023-04-03T13:42:25.318Z,101012.97
2023-04-03T13:44:32.422Z,101016.02
2023-04-03T13:46:39.253Z,101017.73
2023-04-03T13:48:46.862Z,101023.05
2023-04-03T13:51:08.246Z,101023.78
2023-04-03T13:53:16.215Z,101025.55
2023-04-03T13:55:28.351Z,101022.13
2023-04-03T13:57:35.927Z,101023.42
2023-04-03T13:59:44.533Z,101021.7
2023-04-03T14:01:52.362Z,101022.55
2023-04-03T14:04:00.197Z,101022.7
2023-04-03T14:06:07.899Z,101018.27
2023-04-03T14:08:15.272Z,101022.07
2023-04-03T14:10:26.555Z,101028.02
2023-04-03T14:12:34.621Z,101021.18
2023-04-03T14:14:41.985Z,101021.91
2023-04-03T14:16:49.763Z,101022.3
2023-04-03T14:18:58.378Z,101026.02
2023-04-03T14:21:06.282Z,101019.09
2023-04-03T14:23:15.429Z,101024.91
2023-04-03T14:25:22.838Z,101024.69
2023-04-03T14:27:31.389Z,101033.72
2023-04-03T14:29:38.983Z,101029.69
2023-04-03T14:31:46.778Z,101023.39
2023-04-03T14:34:05.285Z,101027.02
2023-04-03T14:36:13.414Z,101020.14
2023-04-03T14:38:21.131Z,101029.98
2023-04-03T14:40:29.198Z,101024.98
2023-04-03T14:42:36.538Z,101025.52
2023-04-03T14:44:46.950Z,101025.94
2023-04-03T14:46:58.657Z,101027.56
2023-04-03T14:49:06.741Z,101026.53
2023-04-03T14:51:14.160Z,101030.25
2023-04-03T14:53:38.617Z,101026.92
2023-04-03T14:55:48.752Z,101027.02
2023-04-03T14:57:56.772Z,101024
2023-04-03T15:00:04.923Z,101025.58
2023-04-03T15:02:12.259Z,101026.48
2023-04-03T15:04:22.038Z,101024.19
2023-04-03T15:06:29.811Z,101028.74
2023-04-03T15:08:37.097Z,101025.97
2023-04-03T15:10:44.688Z,101026.63
2023-04-03T15:12:52.455Z,101022.64
2023-04-03T15:15:05.011Z,101019.72
2023-04-03T15:17:12.654Z,101022.63
2023-04-03T15:19:20.794Z,101024.98
2023-04-03T15:21:28.585Z,101025.41
2023-04-03T15:23:36.347Z,101022.11
2023-04-03T15:25:44.687Z,101018.47
2023-04-03T15:27:52.987Z,101021.62
2023-04-03T15:30:02.601Z,101015
2023-04-03T15:32:10.512Z,101028.41
2023-04-03T15:34:18.121Z,101024.22
2023-04-03T15:36:36.336Z,101021.48
2023-04-03T15:38:45.796Z,101022.02
2023-04-03T15:40:54.466Z,101018.94
2023-04-03T15:43:02.924Z,101018.33
2023-04-03T15:45:10.665Z,101022.5
2023-04-03T15:47:18.573Z,101008.33
2023-04-03T15:49:27.826Z,101020.78
2023-04-03T15:51:35.738Z,101019.78
2023-04-03T15:53:43.641Z,101016.97
2023-04-03T15:55:51.546Z,101014.41
2023-04-03T15:57:59.231Z,101015.92
2023-04-03T16:00:07.638Z,101013.36
2023-04-03T16:02:14.934Z,101011.84
2023-04-03T16:04:22.875Z,101016.75
2023-04-03T16:06:30.660Z,101012.61
2023-04-03T16:08:38.958Z,101011.03
2023-04-03T16:10:46.669Z,101008.78
2023-04-03T16:12:54.401Z,101016.53
2023-04-03T16:15:03.808Z,101012.8
2023-04-03T16:17:12.080Z,101016.38
2023-04-03T16:19:26.852Z,101014.27
2023-04-03T16:21:34.141Z,101021.8
2023-04-03T16:23:42.280Z,101020.47
2023-04-03T16:25:49.965Z,101019.8
2023-04-03T16:27:58.347Z,101017.78
2023-04-03T16:30:05.890Z,101022.15
2023-04-03T16:32:13.699Z,101025.93
2023-04-03T16:34:21.504Z,101026.58
2023-04-03T16:36:29.791Z,101026.34
2023-04-03T16:38:37.999Z,101028.79
2023-04-03T16:40:45.609Z,101025.68
2023-04-03T16:42:53.433Z,101032.05
2023-04-03T16:45:01.327Z,101034.92
2023-04-03T16:47:10.118Z,101036.2
2023-04-03T16:49:20.075Z,101034.67
2023-04-03T16:51:28.918Z,101029.33
2023-04-03T16:53:39.322Z,101032.92
2023-04-03T16:55:49.422Z,101037.75
2023-04-03T16:57:57.758Z,101040.83
2023-04-03T17:00:07.232Z,101037.77
2023-04-03T17:02:15.624Z,101043.28
2023-04-03T17:04:24.244Z,101042.14
2023-04-03T17:06:35.033Z,101042.88
2023-04-03T17:08:43.494Z,101046.48
2023-04-03T17:10:53.108Z,101043.13
2023-04-03T17:13:09.053Z,101051.1
2023-04-03T17:15:21.917Z,101053.2
2023-04-03T17:17:29.979Z,101042.05
2023-04-03T17:19:37.845Z,101052.47
2023-04-03T17:21:48.116Z,101052.41
2023-04-03T17:23:57.230Z,101053.14
2023-04-03T17:26:06.441Z,101051.63
2023-04-03T17:28:20.355Z,101054.84
2023-04-03T17:30:31.941Z,101058.52
2023-04-03T17:32:42.887Z,101063.42
2023-04-03T17:34:52.185Z,101067.13
2023-04-03T17:37:02.211Z,101069.97
2023-04-03T17:39:12.488Z,101074.38
2023-04-03T17:41:27.539Z,101079.03
2023-04-03T17:43:37.165Z,101078.24
2023-04-03T17:45:45.539Z,101079.56
2023-04-03T17:47:55.105Z,101075.64
2023-04-03T17:50:05.245Z,101082.83
2023-04-03T17:52:14.737Z,101076.38
2023-04-03T17:54:25.922Z,101078.27
2023-04-03T17:56:36.005Z,101081.09
2023-04-03T17:58:45.976Z,101081.5
2023-04-03T18:00:54.549Z,101085.45
2023-04-03T18:03:04.749Z,101083.65
2023-04-03T18:05:23.362Z,101087.59
2023-04-03T18:07:37.041Z,101084.86
2023-04-03T18:09:46.518Z,101085.18
2023-04-03T18:11:56.523Z,101085.26
2023-04-03T18:14:11.549Z,101086.16
2023-04-03T18:16:26.639Z,101080.61
2023-04-03T18:18:38.766Z,101079.56
2023-04-03T18:20:48.927Z,101084.53
2023-04-03T18:23:04.446Z,101082.42
2023-04-03T18:25:20.270Z,101085.98
2023-04-03T18:27:31.144Z,101090.02
2023-04-03T18:29:48.738Z,101091.3
2023-04-03T18:32:02.494Z,101088.23
2023-04-03T18:34:13.701Z,101090.18
2023-04-03T18:36:24.136Z,101093.34
2023-04-03T18:38:41.698Z,101090.66
2023-04-03T18:40:56.210Z,101090.53
2023-04-03T18:43:10.431Z,101093.61
2023-04-03T18:45:26.252Z,101095.39
2023-04-03T18:47:41.391Z,101097.27
2023-04-03T18:49:53.012Z,101094.56
2023-04-03T18:52:02.003Z,101098.56
2023-04-03T18:54:12.868Z,101094.64
2023-04-03T18:56:24.658Z,101095.68
2023-04-03T18:58:35.126Z,101094.95
2023-04-03T19:00:47.268Z,101089.7
2023-04-03T19:02:59.578Z,101092.73
2023-04-03T19:05:14.259Z,101088.88
2023-04-03T19:07:26.969Z,101092.33
2023-04-03T19:09:39.096Z,101091.1
2023-04-03T19:11:57.453Z,101094
2023-04-03T19:14:20.500Z,101093.35
2023-04-03T19:16:32.850Z,101087.22
2023-04-03T19:18:41.566Z,101091.27
2023-04-03T19:20:52.398Z,101091.17
2023-04-03T19:23:03.459Z,101092.55
2023-04-03T19:25:20.016Z,101095.79
2023-04-03T19:27:30.892Z,101093.48
2023-04-03T19:29:43.385Z,101097.79
2023-04-03T19:31:59.248Z,101097.84
2023-04-03T19:34:09.186Z,101097.46
2023-04-03T19:36:22.433Z,101100.73
2023-04-03T19:38:35.166Z,101101.84
2023-04-03T19:40:44.112Z,101103.26
2023-04-03T19:42:57.918Z,101106.6
2023-04-03T19:45:09.675Z,101106.96
2023-04-03T19:47:16.758Z,101107.85
2023-04-03T19:49:32.180Z,101111.05
2023-04-03T19:51:41.905Z,101111.55
2023-04-03T19:53:54.913Z,101108.84
2023-04-03T19:56:04.420Z,101117.76
2023-04-03T19:58:15.005Z,101114.21
2023-04-03T20:00:25.043Z,101110.02
2023-04-03T20:02:50.055Z,101114.23
2023-04-03T20:05:01.719Z,101109.06
2023-04-03T20:07:11.528Z,101112.74
2023-04-03T20:09:21.677Z,101110.51
2023-04-03T20:11:30.377Z,101110.49
2023-04-03T20:13:42.202Z,101110.02
2023-04-03T20:15:59.034Z,101115.34
2023-04-03T20:18:09.851Z,101115.5
2023-04-03T20:20:18.397Z,101115.86
2023-04-03T20:22:27.013Z,101113.47
2023-04-03T20:24:35.889Z,101114.46
2023-04-03T20:26:44.974Z,101111.81
2023-04-03T20:28:54.713Z,101112.6
2023-04-03T20:31:01.798Z,101111.94
2023-04-03T20:33:22.674Z,101108.48
2023-04-03T20:35:30.850Z,101109.33
2023-04-03T20:37:40.048Z,101107.36
2023-04-03T20:39:47.967Z,101110.68
2023-04-03T20:41:55.065Z,101108.68
2023-04-03T20:44:02.517Z,101115.44
2023-04-03T20:46:10.159Z,101113.88
2023-04-03T20:48:17.392Z,101117.66
2023-04-03T20:50:24.175Z,101112.36
2023-04-03T20:52:32.455Z,101115.31
2023-04-03T20:54:41.769Z,101111.55
2023-04-03T20:56:49.798Z,101115.58
2023-04-03T20:58:57.290Z,101116.05
2023-04-03T21:01:05.481Z,101115.3
2023-04-03T21:03:13.502Z,101116.06
2023-04-03T21:05:20.002Z,101111.73
2023-04-03T21:07:26.615Z,101118.28
2023-04-03T21:09:35.649Z,101117.07
2023-04-03T21:11:43.620Z,101120.88
2023-04-03T21:13:51.921Z,101115.81
2023-04-03T21:15:59.174Z,101118.5
2023-04-03T21:18:07.085Z,101116.29
2023-04-03T21:20:15.482Z,101119.77
2023-04-03T21:22:22.138Z,101120.76
2023-04-03T21:24:30.419Z,101122.61
2023-04-03T21:26:37.636Z,101122.92
2023-04-03T21:28:44.494Z,101123.49
2023-04-03T21:30:52.328Z,101127.23
2023-04-03T21:33:00.347Z,101124.66
2023-04-03T21:35:07.210Z,101127
2023-04-03T21:37:13.885Z,101129.02
2023-04-03T21:39:20.827Z,101123.39
2023-04-03T21:41:28.455Z,101127.19
2023-04-03T21:43:35.449Z,101128.8
2023-04-03T21:45:42.175Z,101125.69
2023-04-03T21:47:48.688Z,101124.63
2023-04-03T21:49:55.266Z,101123.75
2023-04-03T21:52:01.876Z,101118.51
2023-04-03T21:54:10.334Z,101115.62
2023-04-03T21:56:16.957Z,101121.88
2023-04-03T21:58:23.609Z,101122.86
2023-04-03T22:00:30.217Z,101121.27
2023-04-03T22:02:57.778Z,101122.09
2023-04-03T22:05:15.303Z,101126.32
2023-04-03T22:07:21.777Z,101121.95
2023-04-03T22:09:28.900Z,101123.41
2023-04-03T22:11:35.646Z,101125.4
2023-04-03T22:13:42.811Z,101123.45
2023-04-03T22:15:50.984Z,101121.41
2023-04-03T22:17:57.378Z,101121
2023-04-03T22:20:04.607Z,101116.44
2023-04-03T22:22:12.163Z,101120.13
2023-04-03T22:24:18.352Z,101120.59
2023-04-03T22:26:25.370Z,101116.66
2023-04-03T22:28:32.511Z,101112.17
2023-04-03T22:30:40.128Z,101115.08
2023-04-03T22:32:46.852Z,101113.19
2023-04-03T22:34:53.384Z,101111.2
2023-04-03T22:36:59.950Z,101109.55
2023-04-03T22:39:08.690Z,101110.47
2023-04-03T22:41:16.232Z,101114.94
2023-04-03T22:43:24.947Z,101116.59
2023-04-03T22:45:31.104Z,101116.09
2023-04-03T22:47:38.336Z,101117.64
2023-04-03T22:49:44.828Z,101115.11
2023-04-03T22:51:51.148Z,101112.84
2023-04-03T22:53:58.316Z,101114.31
2023-04-03T22:56:04.777Z,101116.2
2023-04-03T22:58:10.891Z,101113.75
2023-04-03T23:00:18.047Z,101109.56
2023-04-03T23:02:25.366Z,101107.17
2023-04-03T23:04:31.818Z,101112.98
2023-04-03T23:06:39.031Z,101113
2023-04-03T23:08:45.662Z,101108.3
2023-04-03T23:10:51.999Z,101104.63
2023-04-03T23:12:59.078Z,101104.15
2023-04-03T23:15:05.840Z,101105.45
2023-04-03T23:17:12.072Z,101109.49
2023-04-03T23:19:19.712Z,101104.14
2023-04-03T23:21:26.534Z,101102.07
2023-04-03T23:23:33.201Z,101101.65
2023-04-03T23:25:40.138Z,101098.66
2023-04-03T23:27:46.569Z,101092.55
2023-04-03T23:29:53.684Z,101094.29
2023-04-03T23:32:02.732Z,101092.98
2023-04-03T23:34:09.503Z,101092.2
2023-04-03T23:36:16.173Z,101090
2023-04-03T23:38:22.693Z,101091.92
2023-04-03T23:40:29.499Z,101092.31
2023-04-03T23:42:35.844Z,101093.66
2023-04-03T23:44:41.841Z,101088.27
2023-04-03T23:46:48.593Z,101082.56
2023-04-03T23:48:55.394Z,101086.47
2023-04-03T23:51:05.830Z,101082.75
2023-04-03T23:53:12.924Z,101077.69
2023-04-03T23:55:20.261Z,101082.19
2023-04-03T23:57:26.754Z,101081.06
2023-04-03T23:59:33.715Z,101078.69
